MV Causeway Supplier — ZR2426 — position and weather

sailwx.info

Track history (hours):
 
Tides and Currents Weather Stations Pressure Air Temp Water Temp Dewpoint Dewpoint Depression Visibility Wind Speed Wind Dir Waves Ship Positions

MV Causeway Supplier

Last reported at 2015-Jan-22 22:13 UTC. Time now 2015-Jan-29 04:25 UTC.
Position S 34°04' E 018°15'.

Length 22 m; draft 2.7 m.

Type: . MMSI: 601041200.

Date/timePositionNaut miles runAvg speedWind from/ knotsBaromVisibWave heightAir tempDewpointWater temp
2015-Jan-22 22:13S 34°04' E 018°15'  
2015-Jan-19 15:33S 30°03' E 031°03'8 7.8
2015-Jan-19 14:33S 29°55' E 031°04'4 3.7
2015-Jan-19 13:33S 29°54' E 031°00'0 0.1
2015-Jan-19 12:33S 29°54' E 031°00'0 0.0
2015-Jan-19 09:08S 29°54' E 031°00'0 0.0
2015-Jan-19 08:33S 29°54' E 031°00'0 0.0
2015-Jan-19 07:33S 29°54' E 031°00'0 0.0
2015-Jan-19 06:33S 29°54' E 031°00'0 0.0
2015-Jan-19 05:33S 29°54' E 031°00'0 0.0
2015-Jan-19 04:31S 29°54' E 031°00'0 0.0
2015-Jan-19 03:33S 29°54' E 031°00'0 0.0
2015-Jan-19 02:32S 29°54' E 031°00'0 0.0
2015-Jan-19 01:32S 29°54' E 031°00'0 0.0
2015-Jan-19 00:33S 29°54' E 031°00'0 0.0
2015-Jan-18 23:33S 29°54' E 031°00'0 0.0
2015-Jan-18 22:33S 29°54' E 031°00'0 0.0
2015-Jan-18 21:32S 29°54' E 031°00'0 0.0
2015-Jan-18 20:33S 29°54' E 031°00'0 0.0
2015-Jan-18 19:33S 29°54' E 031°00'0 0.0
2015-Jan-18 18:31S 29°54' E 031°00'0 0.0
2015-Jan-18 17:33S 29°54' E 031°00'0 0.0
2015-Jan-18 16:32S 29°54' E 031°00'0 0.0
2015-Jan-18 15:04S 29°54' E 031°00'0 0.0
2015-Jan-18 14:33S 29°54' E 031°00'0 0.1
2015-Jan-18 13:20S 29°54' E 031°00'0 0.1
2015-Jan-18 12:33S 29°54' E 031°00'0 0.0
2015-Jan-18 11:33S 29°54' E 031°00'0 0.0
2015-Jan-17 10:32S 29°54' E 031°00'1 0.9
2015-Jan-17 09:33S 29°53' E 030°60'0 0.0
2015-Jan-17 08:32S 29°53' E 030°60'0 0.0
2015-Jan-17 07:31S 29°53' E 030°60'0 0.0
2015-Jan-17 06:31S 29°53' E 030°60'0 0.0
2015-Jan-17 05:31S 29°53' E 030°60'1 0.1
2015-Jan-16 14:30S 29°54' E 031°00'0 0.0
2015-Jan-16 13:34S 29°54' E 031°00'0 0.0
2015-Jan-16 12:32S 29°54' E 031°00'  
Track history (hours):
 
Tides and Currents Weather Stations Pressure Air Temp Water Temp Dewpoint Dewpoint Depression Visibility Wind Speed Wind Dir Waves Ship Positions

MV Causeway Supplier

Last reported at 2015-Jan-22 22:13 UTC. Time now 2015-Jan-29 04:25 UTC.
Position S 34°04' E 018°15'.

Length 22 m; draft 2.7 m.

Type: . MMSI: 601041200.

Date/timePositionNaut miles runAvg speedWind from/ knotsBaromVisibWave heightAir tempDewpointWater temp
2015-Jan-22 22:13S 34°04' E 018°15'  
2015-Jan-19 15:33S 30°03' E 031°03'8 7.8
2015-Jan-19 14:33S 29°55' E 031°04'4 3.7
2015-Jan-19 13:33S 29°54' E 031°00'0 0.1
2015-Jan-19 12:33S 29°54' E 031°00'0 0.0
2015-Jan-19 09:08S 29°54' E 031°00'0 0.0
2015-Jan-19 08:33S 29°54' E 031°00'0 0.0
2015-Jan-19 07:33S 29°54' E 031°00'0 0.0
2015-Jan-19 06:33S 29°54' E 031°00'0 0.0
2015-Jan-19 05:33S 29°54' E 031°00'0 0.0
2015-Jan-19 04:31S 29°54' E 031°00'0 0.0
2015-Jan-19 03:33S 29°54' E 031°00'0 0.0
2015-Jan-19 02:32S 29°54' E 031°00'0 0.0
2015-Jan-19 01:32S 29°54' E 031°00'0 0.0
2015-Jan-19 00:33S 29°54' E 031°00'0 0.0
2015-Jan-18 23:33S 29°54' E 031°00'0 0.0
2015-Jan-18 22:33S 29°54' E 031°00'0 0.0
2015-Jan-18 21:32S 29°54' E 031°00'0 0.0
2015-Jan-18 20:33S 29°54' E 031°00'0 0.0
2015-Jan-18 19:33S 29°54' E 031°00'0 0.0
2015-Jan-18 18:31S 29°54' E 031°00'0 0.0
2015-Jan-18 17:33S 29°54' E 031°00'0 0.0
2015-Jan-18 16:32S 29°54' E 031°00'0 0.0
2015-Jan-18 15:04S 29°54' E 031°00'0 0.0
2015-Jan-18 14:33S 29°54' E 031°00'0 0.1
2015-Jan-18 13:20S 29°54' E 031°00'0 0.1
2015-Jan-18 12:33S 29°54' E 031°00'0 0.0
2015-Jan-18 11:33S 29°54' E 031°00'0 0.0
2015-Jan-17 10:32S 29°54' E 031°00'1 0.9
2015-Jan-17 09:33S 29°53' E 030°60'0 0.0
2015-Jan-17 08:32S 29°53' E 030°60'0 0.0
2015-Jan-17 07:31S 29°53' E 030°60'0 0.0
2015-Jan-17 06:31S 29°53' E 030°60'0 0.0
2015-Jan-17 05:31S 29°53' E 030°60'1 0.1
2015-Jan-16 14:30S 29°54' E 031°00'0 0.0
2015-Jan-16 13:34S 29°54' E 031°00'0 0.0
2015-Jan-16 12:32S 29°54' E 031°00'  

Dump ship's entire track history